sensor_id;sensor_type;location;lat;lon;timestamp;P1;durP1;ratioP1;P2;durP2;ratioP2
13801;SDS011;6972;51.518;6.918;2023-06-10T00:02:28;6.32;;;4.30;;
13801;SDS011;6972;51.518;6.918;2023-06-10T00:04:54;5.63;;;4.10;;
13801;SDS011;6972;51.518;6.918;2023-06-10T00:07:20;7.10;;;4.43;;
13801;SDS011;6972;51.518;6.918;2023-06-10T00:09:46;5.90;;;3.97;;
13801;SDS011;6972;51.518;6.918;2023-06-10T00:12:12;4.93;;;4.00;;
13801;SDS011;6972;51.518;6.918;2023-06-10T00:14:40;6.20;;;4.57;;
13801;SDS011;6972;51.518;6.918;2023-06-10T00:17:06;8.40;;;4.40;;
13801;SDS011;6972;51.518;6.918;2023-06-10T00:19:35;5.00;;;4.15;;
13801;SDS011;6972;51.518;6.918;2023-06-10T00:22:06;4.85;;;4.35;;
13801;SDS011;6972;51.518;6.918;2023-06-10T00:24:32;6.57;;;4.13;;
13801;SDS011;6972;51.518;6.918;2023-06-10T00:26:58;9.30;;;4.50;;
13801;SDS011;6972;51.518;6.918;2023-06-10T00:29:24;4.60;;;4.07;;
13801;SDS011;6972;51.518;6.918;2023-06-10T00:31:50;5.85;;;4.18;;
13801;SDS011;6972;51.518;6.918;2023-06-10T00:34:18;6.03;;;4.10;;
13801;SDS011;6972;51.518;6.918;2023-06-10T00:36:44;6.47;;;4.05;;
13801;SDS011;6972;51.518;6.918;2023-06-10T00:39:10;5.80;;;3.95;;
13801;SDS011;6972;51.518;6.918;2023-06-10T00:41:36;7.03;;;4.35;;
13801;SDS011;6972;51.518;6.918;2023-06-10T00:44:03;7.95;;;4.30;;
13801;SDS011;6972;51.518;6.918;2023-06-10T00:46:29;5.63;;;4.05;;
13801;SDS011;6972;51.518;6.918;2023-06-10T00:48:58;4.97;;;4.03;;
13801;SDS011;6972;51.518;6.918;2023-06-10T00:51:25;7.13;;;4.20;;
13801;SDS011;6972;51.518;6.918;2023-06-10T00:53:51;6.90;;;4.40;;
13801;SDS011;6972;51.518;6.918;2023-06-10T00:56:17;7.93;;;4.93;;
13801;SDS011;6972;51.518;6.918;2023-06-10T00:58:43;9.70;;;5.28;;
13801;SDS011;6972;51.518;6.918;2023-06-10T01:01:09;6.93;;;5.00;;
13801;SDS011;6972;51.518;6.918;2023-06-10T01:03:36;8.18;;;5.30;;
13801;SDS011;6972;51.518;6.918;2023-06-10T01:11:04;8.77;;;5.05;;
13801;SDS011;6972;51.518;6.918;2023-06-10T01:13:32;8.30;;;5.40;;
13801;SDS011;6972;51.518;6.918;2023-06-10T01:16:01;10.73;;;5.13;;
13801;SDS011;6972;51.518;6.918;2023-06-10T01:18:31;9.70;;;4.90;;
13801;SDS011;6972;51.518;6.918;2023-06-10T01:20:57;9.90;;;5.22;;
13801;SDS011;6972;51.518;6.918;2023-06-10T01:23:23;7.65;;;4.90;;
13801;SDS011;6972;51.518;6.918;2023-06-10T01:25:58;7.40;;;4.88;;
13801;SDS011;6972;51.518;6.918;2023-06-10T01:31:06;6.80;;;5.57;;
13801;SDS011;6972;51.518;6.918;2023-06-10T01:33:37;7.95;;;5.30;;
13801;SDS011;6972;51.518;6.918;2023-06-10T01:36:04;7.78;;;5.25;;
13801;SDS011;6972;51.518;6.918;2023-06-10T01:38:30;6.35;;;5.00;;
13801;SDS011;6972;51.518;6.918;2023-06-10T01:40:58;7.90;;;5.03;;
13801;SDS011;6972;51.518;6.918;2023-06-10T01:43:24;6.95;;;5.55;;
13801;SDS011;6972;51.518;6.918;2023-06-10T01:45:50;7.13;;;5.20;;
13801;SDS011;6972;51.518;6.918;2023-06-10T01:48:16;8.43;;;5.50;;
13801;SDS011;6972;51.518;6.918;2023-06-10T01:50:42;8.23;;;5.60;;
13801;SDS011;6972;51.518;6.918;2023-06-10T01:53:09;11.43;;;5.30;;
13801;SDS011;6972;51.518;6.918;2023-06-10T01:55:35;7.75;;;5.10;;
13801;SDS011;6972;51.518;6.918;2023-06-10T01:58:01;6.97;;;5.78;;
13801;SDS011;6972;51.518;6.918;2023-06-10T02:00:27;8.38;;;5.32;;
13801;SDS011;6972;51.518;6.918;2023-06-10T02:02:53;8.15;;;5.70;;
13801;SDS011;6972;51.518;6.918;2023-06-10T02:05:20;8.20;;;6.70;;
13801;SDS011;6972;51.518;6.918;2023-06-10T02:07:46;9.65;;;5.63;;
13801;SDS011;6972;51.518;6.918;2023-06-10T02:10:12;6.55;;;5.30;;
13801;SDS011;6972;51.518;6.918;2023-06-10T02:12:38;9.10;;;6.15;;
13801;SDS011;6972;51.518;6.918;2023-06-10T02:15:04;8.13;;;5.88;;
13801;SDS011;6972;51.518;6.918;2023-06-10T02:17:30;7.25;;;5.65;;
13801;SDS011;6972;51.518;6.918;2023-06-10T02:19:57;7.88;;;5.47;;
13801;SDS011;6972;51.518;6.918;2023-06-10T02:22:24;6.65;;;5.95;;
13801;SDS011;6972;51.518;6.918;2023-06-10T02:24:50;8.80;;;6.13;;
13801;SDS011;6972;51.518;6.918;2023-06-10T02:27:17;11.05;;;6.47;;
13801;SDS011;6972;51.518;6.918;2023-06-10T02:29:44;10.25;;;6.38;;
13801;SDS011;6972;51.518;6.918;2023-06-10T02:32:10;9.50;;;6.25;;
13801;SDS011;6972;51.518;6.918;2023-06-10T02:34:36;8.70;;;6.05;;
13801;SDS011;6972;51.518;6.918;2023-06-10T02:37:02;10.02;;;6.10;;
13801;SDS011;6972;51.518;6.918;2023-06-10T02:39:28;9.40;;;6.00;;
13801;SDS011;6972;51.518;6.918;2023-06-10T02:41:57;7.45;;;5.70;;
13801;SDS011;6972;51.518;6.918;2023-06-10T02:44:23;8.65;;;6.28;;
13801;SDS011;6972;51.518;6.918;2023-06-10T02:46:49;7.45;;;6.20;;
13801;SDS011;6972;51.518;6.918;2023-06-10T02:49:15;8.68;;;6.28;;
13801;SDS011;6972;51.518;6.918;2023-06-10T02:51:41;7.97;;;6.38;;
13801;SDS011;6972;51.518;6.918;2023-06-10T02:54:07;11.77;;;6.55;;
13801;SDS011;6972;51.518;6.918;2023-06-10T02:56:33;8.57;;;6.22;;
13801;SDS011;6972;51.518;6.918;2023-06-10T02:59:00;8.32;;;6.43;;
13801;SDS011;6972;51.518;6.918;2023-06-10T03:01:26;9.23;;;6.25;;
13801;SDS011;6972;51.518;6.918;2023-06-10T03:03:52;7.45;;;5.55;;
13801;SDS011;6972;51.518;6.918;2023-06-10T03:06:18;8.85;;;6.30;;
13801;SDS011;6972;51.518;6.918;2023-06-10T03:08:44;8.10;;;6.53;;
13801;SDS011;6972;51.518;6.918;2023-06-10T03:11:13;11.20;;;6.38;;
13801;SDS011;6972;51.518;6.918;2023-06-10T03:13:39;11.68;;;6.80;;
13801;SDS011;6972;51.518;6.918;2023-06-10T03:16:05;10.07;;;5.80;;
13801;SDS011;6972;51.518;6.918;2023-06-10T03:18:34;8.48;;;6.50;;
13801;SDS011;6972;51.518;6.918;2023-06-10T03:21:00;8.95;;;6.40;;
13801;SDS011;6972;51.518;6.918;2023-06-10T03:23:27;9.65;;;6.95;;
13801;SDS011;6972;51.518;6.918;2023-06-10T03:25:54;7.68;;;5.80;;
13801;SDS011;6972;51.518;6.918;2023-06-10T03:28:20;9.93;;;6.78;;
13801;SDS011;6972;51.518;6.918;2023-06-10T03:30:46;12.25;;;6.80;;
13801;SDS011;6972;51.518;6.918;2023-06-10T03:33:12;6.72;;;5.93;;
13801;SDS011;6972;51.518;6.918;2023-06-10T03:35:39;10.77;;;6.55;;
13801;SDS011;6972;51.518;6.918;2023-06-10T03:38:05;10.27;;;5.82;;
13801;SDS011;6972;51.518;6.918;2023-06-10T03:40:31;11.25;;;6.10;;
13801;SDS011;6972;51.518;6.918;2023-06-10T03:42:57;8.82;;;6.20;;
13801;SDS011;6972;51.518;6.918;2023-06-10T03:45:24;11.52;;;6.88;;
13801;SDS011;6972;51.518;6.918;2023-06-10T03:47:53;7.60;;;5.78;;
13801;SDS011;6972;51.518;6.918;2023-06-10T03:50:20;11.32;;;6.72;;
13801;SDS011;6972;51.518;6.918;2023-06-10T03:52:48;8.43;;;6.30;;
13801;SDS011;6972;51.518;6.918;2023-06-10T03:55:14;9.43;;;6.50;;
13801;SDS011;6972;51.518;6.918;2023-06-10T03:57:41;7.93;;;6.10;;
13801;SDS011;6972;51.518;6.918;2023-06-10T04:00:08;11.23;;;5.80;;
13801;SDS011;6972;51.518;6.918;2023-06-10T04:02:38;9.50;;;6.28;;
13801;SDS011;6972;51.518;6.918;2023-06-10T04:05:16;8.95;;;6.18;;
13801;SDS011;6972;51.518;6.918;2023-06-10T04:07:43;9.93;;;6.32;;
13801;SDS011;6972;51.518;6.918;2023-06-10T04:10:09;8.63;;;5.88;;
13801;SDS011;6972;51.518;6.918;2023-06-10T04:12:36;10.70;;;6.43;;
13801;SDS011;6972;51.518;6.918;2023-06-10T04:15:02;9.50;;;5.75;;
13801;SDS011;6972;51.518;6.918;2023-06-10T04:17:29;11.00;;;6.32;;
13801;SDS011;6972;51.518;6.918;2023-06-10T04:19:57;9.18;;;6.38;;
13801;SDS011;6972;51.518;6.918;2023-06-10T04:22:24;8.60;;;5.57;;
13801;SDS011;6972;51.518;6.918;2023-06-10T04:24:50;7.18;;;5.45;;
13801;SDS011;6972;51.518;6.918;2023-06-10T04:27:16;10.10;;;5.32;;
13801;SDS011;6972;51.518;6.918;2023-06-10T04:29:42;9.65;;;5.47;;
13801;SDS011;6972;51.518;6.918;2023-06-10T04:32:08;8.88;;;5.45;;
13801;SDS011;6972;51.518;6.918;2023-06-10T04:34:34;8.40;;;5.65;;
13801;SDS011;6972;51.518;6.918;2023-06-10T04:37:01;7.40;;;5.07;;
13801;SDS011;6972;51.518;6.918;2023-06-10T04:39:27;6.43;;;4.40;;
13801;SDS011;6972;51.518;6.918;2023-06-10T04:41:54;9.02;;;5.25;;
13801;SDS011;6972;51.518;6.918;2023-06-10T04:44:20;8.65;;;5.05;;
13801;SDS011;6972;51.518;6.918;2023-06-10T04:46:46;10.75;;;5.97;;
13801;SDS011;6972;51.518;6.918;2023-06-10T04:49:13;6.72;;;4.97;;
13801;SDS011;6972;51.518;6.918;2023-06-10T04:51:42;9.13;;;5.40;;
13801;SDS011;6972;51.518;6.918;2023-06-10T04:54:08;6.32;;;5.05;;
13801;SDS011;6972;51.518;6.918;2023-06-10T04:56:34;7.40;;;5.05;;
13801;SDS011;6972;51.518;6.918;2023-06-10T04:59:01;9.10;;;5.60;;
13801;SDS011;6972;51.518;6.918;2023-06-10T05:01:27;8.70;;;5.47;;
13801;SDS011;6972;51.518;6.918;2023-06-10T05:03:53;10.93;;;5.25;;
13801;SDS011;6972;51.518;6.918;2023-06-10T05:06:19;7.50;;;5.13;;
13801;SDS011;6972;51.518;6.918;2023-06-10T05:08:45;10.10;;;4.90;;
13801;SDS011;6972;51.518;6.918;2023-06-10T05:11:11;8.30;;;5.18;;
13801;SDS011;6972;51.518;6.918;2023-06-10T05:13:37;9.13;;;5.43;;
13801;SDS011;6972;51.518;6.918;2023-06-10T05:16:05;7.80;;;5.45;;
13801;SDS011;6972;51.518;6.918;2023-06-10T05:18:32;7.13;;;5.20;;
13801;SDS011;6972;51.518;6.918;2023-06-10T05:20:58;7.78;;;5.40;;
13801;SDS011;6972;51.518;6.918;2023-06-10T05:23:24;10.57;;;5.70;;
13801;SDS011;6972;51.518;6.918;2023-06-10T05:25:50;9.02;;;4.82;;
13801;SDS011;6972;51.518;6.918;2023-06-10T05:28:16;8.52;;;5.25;;
13801;SDS011;6972;51.518;6.918;2023-06-10T05:30:43;8.20;;;5.43;;
13801;SDS011;6972;51.518;6.918;2023-06-10T05:33:09;8.23;;;4.72;;
13801;SDS011;6972;51.518;6.918;2023-06-10T05:35:35;7.70;;;4.88;;
13801;SDS011;6972;51.518;6.918;2023-06-10T05:38:02;9.20;;;5.05;;
13801;SDS011;6972;51.518;6.918;2023-06-10T05:40:28;7.78;;;5.43;;
13801;SDS011;6972;51.518;6.918;2023-06-10T05:42:54;8.40;;;4.90;;
13801;SDS011;6972;51.518;6.918;2023-06-10T05:45:20;7.38;;;4.65;;
13801;SDS011;6972;51.518;6.918;2023-06-10T05:47:46;8.00;;;4.53;;
13801;SDS011;6972;51.518;6.918;2023-06-10T05:50:12;10.13;;;5.43;;
13801;SDS011;6972;51.518;6.918;2023-06-10T05:52:38;9.27;;;4.95;;
13801;SDS011;6972;51.518;6.918;2023-06-10T05:55:05;7.25;;;4.93;;
13801;SDS011;6972;51.518;6.918;2023-06-10T05:57:31;13.73;;;5.03;;
13801;SDS011;6972;51.518;6.918;2023-06-10T05:59:57;9.13;;;4.68;;
13801;SDS011;6972;51.518;6.918;2023-06-10T06:02:23;6.72;;;4.80;;
13801;SDS011;6972;51.518;6.918;2023-06-10T06:04:49;9.85;;;4.88;;
13801;SDS011;6972;51.518;6.918;2023-06-10T06:07:15;6.65;;;4.63;;
13801;SDS011;6972;51.518;6.918;2023-06-10T06:09:41;9.15;;;5.05;;
13801;SDS011;6972;51.518;6.918;2023-06-10T06:12:07;8.82;;;4.88;;
13801;SDS011;6972;51.518;6.918;2023-06-10T06:14:36;7.25;;;4.82;;
13801;SDS011;6972;51.518;6.918;2023-06-10T06:17:04;7.45;;;4.15;;
13801;SDS011;6972;51.518;6.918;2023-06-10T06:19:33;7.13;;;4.85;;
13801;SDS011;6972;51.518;6.918;2023-06-10T06:21:59;9.38;;;4.47;;
13801;SDS011;6972;51.518;6.918;2023-06-10T06:24:25;9.15;;;4.40;;
13801;SDS011;6972;51.518;6.918;2023-06-10T06:26:51;8.30;;;4.65;;
13801;SDS011;6972;51.518;6.918;2023-06-10T06:29:17;6.78;;;4.10;;
13801;SDS011;6972;51.518;6.918;2023-06-10T06:31:43;7.70;;;4.78;;
13801;SDS011;6972;51.518;6.918;2023-06-10T06:34:09;8.45;;;4.93;;
13801;SDS011;6972;51.518;6.918;2023-06-10T06:36:36;7.85;;;4.22;;
13801;SDS011;6972;51.518;6.918;2023-06-10T06:39:02;7.97;;;4.25;;
13801;SDS011;6972;51.518;6.918;2023-06-10T06:41:28;4.35;;;3.83;;
13801;SDS011;6972;51.518;6.918;2023-06-10T06:43:56;5.65;;;4.28;;
13801;SDS011;6972;51.518;6.918;2023-06-10T06:46:23;5.38;;;4.00;;
13801;SDS011;6972;51.518;6.918;2023-06-10T06:48:49;5.15;;;3.63;;
13801;SDS011;6972;51.518;6.918;2023-06-10T06:51:15;10.40;;;4.13;;
13801;SDS011;6972;51.518;6.918;2023-06-10T06:53:41;7.75;;;3.90;;
13801;SDS011;6972;51.518;6.918;2023-06-10T06:56:10;6.75;;;3.70;;
13801;SDS011;6972;51.518;6.918;2023-06-10T06:58:36;6.65;;;3.75;;
13801;SDS011;6972;51.518;6.918;2023-06-10T07:01:02;7.55;;;4.05;;
13801;SDS011;6972;51.518;6.918;2023-06-10T07:03:28;6.30;;;4.45;;
13801;SDS011;6972;51.518;6.918;2023-06-10T07:05:57;7.35;;;4.20;;
13801;SDS011;6972;51.518;6.918;2023-06-10T07:08:23;6.95;;;3.90;;
13801;SDS011;6972;51.518;6.918;2023-06-10T07:10:50;7.40;;;4.18;;
13801;SDS011;6972;51.518;6.918;2023-06-10T07:13:16;9.32;;;4.03;;
13801;SDS011;6972;51.518;6.918;2023-06-10T07:15:42;8.50;;;4.13;;
13801;SDS011;6972;51.518;6.918;2023-06-10T07:18:08;7.00;;;4.25;;
13801;SDS011;6972;51.518;6.918;2023-06-10T07:20:34;11.77;;;4.35;;
13801;SDS011;6972;51.518;6.918;2023-06-10T07:23:00;8.20;;;3.78;;
13801;SDS011;6972;51.518;6.918;2023-06-10T07:25:26;9.07;;;3.95;;
13801;SDS011;6972;51.518;6.918;2023-06-10T07:27:52;5.65;;;3.83;;
13801;SDS011;6972;51.518;6.918;2023-06-10T07:30:18;8.95;;;3.92;;
13801;SDS011;6972;51.518;6.918;2023-06-10T07:32:44;6.90;;;3.90;;
13801;SDS011;6972;51.518;6.918;2023-06-10T07:35:10;8.55;;;4.53;;
13801;SDS011;6972;51.518;6.918;2023-06-10T07:37:36;7.03;;;4.40;;
13801;SDS011;6972;51.518;6.918;2023-06-10T07:40:02;8.15;;;4.10;;
13801;SDS011;6972;51.518;6.918;2023-06-10T07:42:29;7.57;;;4.18;;
13801;SDS011;6972;51.518;6.918;2023-06-10T07:44:55;9.10;;;3.97;;
13801;SDS011;6972;51.518;6.918;2023-06-10T07:47:21;9.73;;;4.45;;
13801;SDS011;6972;51.518;6.918;2023-06-10T07:49:47;6.07;;;4.43;;
13801;SDS011;6972;51.518;6.918;2023-06-10T07:52:13;6.85;;;4.20;;
13801;SDS011;6972;51.518;6.918;2023-06-10T07:54:39;9.50;;;3.80;;
13801;SDS011;6972;51.518;6.918;2023-06-10T07:57:05;6.38;;;3.92;;
13801;SDS011;6972;51.518;6.918;2023-06-10T07:59:32;9.15;;;4.03;;
13801;SDS011;6972;51.518;6.918;2023-06-10T08:01:58;10.60;;;4.00;;
13801;SDS011;6972;51.518;6.918;2023-06-10T08:04:24;8.18;;;3.53;;
13801;SDS011;6972;51.518;6.918;2023-06-10T08:06:50;7.32;;;4.32;;
13801;SDS011;6972;51.518;6.918;2023-06-10T08:09:16;10.05;;;4.07;;
13801;SDS011;6972;51.518;6.918;2023-06-10T08:11:43;6.38;;;4.18;;
13801;SDS011;6972;51.518;6.918;2023-06-10T08:14:09;6.47;;;3.90;;
13801;SDS011;6972;51.518;6.918;2023-06-10T08:16:35;6.47;;;3.90;;
13801;SDS011;6972;51.518;6.918;2023-06-10T08:19:01;5.95;;;4.13;;
13801;SDS011;6972;51.518;6.918;2023-06-10T08:21:33;6.75;;;3.97;;
13801;SDS011;6972;51.518;6.918;2023-06-10T08:23:59;5.25;;;3.35;;
13801;SDS011;6972;51.518;6.918;2023-06-10T08:26:25;8.40;;;3.70;;
13801;SDS011;6972;51.518;6.918;2023-06-10T08:28:51;6.50;;;3.75;;
13801;SDS011;6972;51.518;6.918;2023-06-10T08:31:17;7.53;;;3.95;;
13801;SDS011;6972;51.518;6.918;2023-06-10T08:33:43;6.18;;;3.90;;
13801;SDS011;6972;51.518;6.918;2023-06-10T08:36:09;6.25;;;3.38;;
13801;SDS011;6972;51.518;6.918;2023-06-10T08:38:35;8.65;;;4.03;;
13801;SDS011;6972;51.518;6.918;2023-06-10T08:41:01;6.63;;;3.83;;
13801;SDS011;6972;51.518;6.918;2023-06-10T08:43:34;6.57;;;3.80;;
13801;SDS011;6972;51.518;6.918;2023-06-10T08:46:02;6.88;;;3.83;;
13801;SDS011;6972;51.518;6.918;2023-06-10T08:48:29;6.97;;;3.50;;
13801;SDS011;6972;51.518;6.918;2023-06-10T08:50:58;7.47;;;4.07;;
13801;SDS011;6972;51.518;6.918;2023-06-10T08:53:26;9.80;;;3.80;;
13801;SDS011;6972;51.518;6.918;2023-06-10T08:55:53;5.15;;;3.60;;
13801;SDS011;6972;51.518;6.918;2023-06-10T08:58:22;6.30;;;3.70;;
13801;SDS011;6972;51.518;6.918;2023-06-10T09:00:48;8.02;;;3.70;;
13801;SDS011;6972;51.518;6.918;2023-06-10T09:03:15;5.28;;;3.85;;
13801;SDS011;6972;51.518;6.918;2023-06-10T09:05:42;5.25;;;3.90;;
13801;SDS011;6972;51.518;6.918;2023-06-10T09:08:08;8.27;;;3.80;;
13801;SDS011;6972;51.518;6.918;2023-06-10T09:10:34;9.77;;;4.03;;
13801;SDS011;6972;51.518;6.918;2023-06-10T09:13:00;5.68;;;3.80;;
13801;SDS011;6972;51.518;6.918;2023-06-10T09:15:26;7.63;;;3.78;;
13801;SDS011;6972;51.518;6.918;2023-06-10T09:17:52;10.45;;;4.05;;
13801;SDS011;6972;51.518;6.918;2023-06-10T09:20:18;7.72;;;3.78;;
13801;SDS011;6972;51.518;6.918;2023-06-10T09:22:45;10.68;;;4.20;;
13801;SDS011;6972;51.518;6.918;2023-06-10T09:25:12;6.00;;;3.88;;
13801;SDS011;6972;51.518;6.918;2023-06-10T09:27:48;9.88;;;3.72;;
13801;SDS011;6972;51.518;6.918;2023-06-10T09:30:33;11.60;;;4.03;;
13801;SDS011;6972;51.518;6.918;2023-06-10T09:33:00;7.18;;;3.58;;
13801;SDS011;6972;51.518;6.918;2023-06-10T09:35:29;5.57;;;3.70;;
13801;SDS011;6972;51.518;6.918;2023-06-10T09:37:58;6.97;;;3.70;;
13801;SDS011;6972;51.518;6.918;2023-06-10T09:40:25;6.45;;;3.97;;
13801;SDS011;6972;51.518;6.918;2023-06-10T09:42:58;14.82;;;4.03;;
13801;SDS011;6972;51.518;6.918;2023-06-10T09:45:28;9.38;;;3.90;;
13801;SDS011;6972;51.518;6.918;2023-06-10T09:47:55;4.53;;;3.55;;
13801;SDS011;6972;51.518;6.918;2023-06-10T09:50:22;8.43;;;3.53;;
13801;SDS011;6972;51.518;6.918;2023-06-10T09:52:48;6.72;;;3.80;;
13801;SDS011;6972;51.518;6.918;2023-06-10T09:55:15;7.25;;;3.88;;
13801;SDS011;6972;51.518;6.918;2023-06-10T09:57:42;5.43;;;4.43;;
13801;SDS011;6972;51.518;6.918;2023-06-10T10:00:12;5.47;;;3.85;;
13801;SDS011;6972;51.518;6.918;2023-06-10T10:05:12;4.55;;;3.30;;
13801;SDS011;6972;51.518;6.918;2023-06-10T10:07:39;7.85;;;3.58;;
13801;SDS011;6972;51.518;6.918;2023-06-10T10:10:06;6.47;;;3.65;;
13801;SDS011;6972;51.518;6.918;2023-06-10T10:12:33;5.05;;;3.90;;
13801;SDS011;6972;51.518;6.918;2023-06-10T10:15:00;7.72;;;3.47;;
13801;SDS011;6972;51.518;6.918;2023-06-10T10:17:26;7.95;;;4.25;;
13801;SDS011;6972;51.518;6.918;2023-06-10T10:19:53;4.68;;;3.38;;
13801;SDS011;6972;51.518;6.918;2023-06-10T10:22:26;4.13;;;3.60;;
13801;SDS011;6972;51.518;6.918;2023-06-10T10:24:53;4.63;;;3.50;;
13801;SDS011;6972;51.518;6.918;2023-06-10T10:27:33;4.40;;;3.50;;
13801;SDS011;6972;51.518;6.918;2023-06-10T10:30:00;6.35;;;3.60;;
13801;SDS011;6972;51.518;6.918;2023-06-10T10:32:30;8.10;;;3.83;;
13801;SDS011;6972;51.518;6.918;2023-06-10T10:37:27;5.72;;;4.10;;
13801;SDS011;6972;51.518;6.918;2023-06-10T10:39:54;4.18;;;3.42;;
13801;SDS011;6972;51.518;6.918;2023-06-10T10:42:20;5.22;;;3.58;;
13801;SDS011;6972;51.518;6.918;2023-06-10T10:44:46;7.93;;;3.58;;
13801;SDS011;6972;51.518;6.918;2023-06-10T10:47:12;8.00;;;3.50;;
13801;SDS011;6972;51.518;6.918;2023-06-10T10:49:39;4.90;;;3.70;;
13801;SDS011;6972;51.518;6.918;2023-06-10T10:52:11;5.00;;;3.58;;
13801;SDS011;6972;51.518;6.918;2023-06-10T10:54:37;8.68;;;3.60;;
13801;SDS011;6972;51.518;6.918;2023-06-10T10:59:59;7.00;;;4.22;;
13801;SDS011;6972;51.518;6.918;2023-06-10T11:02:33;6.72;;;3.92;;
13801;SDS011;6972;51.518;6.918;2023-06-10T11:05:00;4.63;;;3.08;;
13801;SDS011;6972;51.518;6.918;2023-06-10T11:07:28;5.10;;;3.35;;
13801;SDS011;6972;51.518;6.918;2023-06-10T11:09:58;7.10;;;3.90;;
13801;SDS011;6972;51.518;6.918;2023-06-10T11:12:25;4.95;;;3.60;;
13801;SDS011;6972;51.518;6.918;2023-06-10T11:14:53;5.05;;;3.55;;
13801;SDS011;6972;51.518;6.918;2023-06-10T11:17:20;9.23;;;3.70;;
13801;SDS011;6972;51.518;6.918;2023-06-10T11:19:46;8.18;;;4.15;;
13801;SDS011;6972;51.518;6.918;2023-06-10T11:22:18;6.35;;;3.75;;
13801;SDS011;6972;51.518;6.918;2023-06-10T11:24:48;7.47;;;3.65;;
13801;SDS011;6972;51.518;6.918;2023-06-10T11:27:18;5.45;;;3.42;;
13801;SDS011;6972;51.518;6.918;2023-06-10T11:32:29;9.10;;;3.75;;
13801;SDS011;6972;51.518;6.918;2023-06-10T11:34:58;6.50;;;3.72;;
13801;SDS011;6972;51.518;6.918;2023-06-10T11:37:25;6.25;;;3.45;;
13801;SDS011;6972;51.518;6.918;2023-06-10T11:39:51;5.95;;;3.70;;
13801;SDS011;6972;51.518;6.918;2023-06-10T11:42:17;8.85;;;3.78;;
13801;SDS011;6972;51.518;6.918;2023-06-10T11:44:51;4.88;;;3.72;;
13801;SDS011;6972;51.518;6.918;2023-06-10T11:47:18;5.90;;;3.88;;
13801;SDS011;6972;51.518;6.918;2023-06-10T11:49:45;4.57;;;3.42;;
13801;SDS011;6972;51.518;6.918;2023-06-10T11:52:11;5.60;;;3.80;;
13801;SDS011;6972;51.518;6.918;2023-06-10T11:54:38;9.10;;;3.92;;
13801;SDS011;6972;51.518;6.918;2023-06-10T11:57:04;5.30;;;3.90;;
13801;SDS011;6972;51.518;6.918;2023-06-10T11:59:30;6.97;;;4.18;;
13801;SDS011;6972;51.518;6.918;2023-06-10T12:01:56;6.72;;;3.67;;
13801;SDS011;6972;51.518;6.918;2023-06-10T12:04:23;4.68;;;3.70;;
13801;SDS011;6972;51.518;6.918;2023-06-10T12:06:51;6.28;;;3.90;;
13801;SDS011;6972;51.518;6.918;2023-06-10T12:11:51;6.47;;;3.75;;
13801;SDS011;6972;51.518;6.918;2023-06-10T12:14:49;5.82;;;3.72;;
13801;SDS011;6972;51.518;6.918;2023-06-10T12:17:03;7.13;;;3.42;;
13801;SDS011;6972;51.518;6.918;2023-06-10T12:19:37;4.82;;;3.70;;
13801;SDS011;6972;51.518;6.918;2023-06-10T12:22:04;7.10;;;3.80;;
13801;SDS011;6972;51.518;6.918;2023-06-10T12:24:30;4.65;;;3.53;;
13801;SDS011;6972;51.518;6.918;2023-06-10T12:26:57;8.60;;;4.15;;
13801;SDS011;6972;51.518;6.918;2023-06-10T12:29:24;6.00;;;3.70;;
13801;SDS011;6972;51.518;6.918;2023-06-10T12:31:57;4.40;;;3.53;;
13801;SDS011;6972;51.518;6.918;2023-06-10T12:34:37;7.05;;;3.38;;
13801;SDS011;6972;51.518;6.918;2023-06-10T12:37:04;6.68;;;3.80;;
13801;SDS011;6972;51.518;6.918;2023-06-10T12:39:31;5.70;;;3.92;;
13801;SDS011;6972;51.518;6.918;2023-06-10T12:41:57;7.05;;;4.28;;
13801;SDS011;6972;51.518;6.918;2023-06-10T12:44:33;6.18;;;3.90;;
13801;SDS011;6972;51.518;6.918;2023-06-10T12:47:00;4.55;;;3.80;;
13801;SDS011;6972;51.518;6.918;2023-06-10T12:49:26;5.00;;;3.88;;
13801;SDS011;6972;51.518;6.918;2023-06-10T12:51:52;4.22;;;3.58;;
13801;SDS011;6972;51.518;6.918;2023-06-10T12:54:19;5.30;;;3.65;;
13801;SDS011;6972;51.518;6.918;2023-06-10T12:56:45;6.47;;;3.83;;
13801;SDS011;6972;51.518;6.918;2023-06-10T12:59:11;4.88;;;3.70;;
13801;SDS011;6972;51.518;6.918;2023-06-10T13:01:37;6.88;;;3.78;;
13801;SDS011;6972;51.518;6.918;2023-06-10T13:04:05;8.70;;;4.00;;
13801;SDS011;6972;51.518;6.918;2023-06-10T13:06:34;5.35;;;3.95;;
13801;SDS011;6972;51.518;6.918;2023-06-10T13:09:03;9.65;;;3.70;;
13801;SDS011;6972;51.518;6.918;2023-06-10T13:11:31;6.82;;;4.10;;
13801;SDS011;6972;51.518;6.918;2023-06-10T13:13:57;5.80;;;4.03;;
13801;SDS011;6972;51.518;6.918;2023-06-10T13:16:23;4.20;;;3.80;;
13801;SDS011;6972;51.518;6.918;2023-06-10T13:18:50;6.63;;;3.67;;
13801;SDS011;6972;51.518;6.918;2023-06-10T13:21:16;7.95;;;3.78;;
13801;SDS011;6972;51.518;6.918;2023-06-10T13:23:44;6.57;;;4.10;;
13801;SDS011;6972;51.518;6.918;2023-06-10T13:26:12;5.22;;;3.95;;
13801;SDS011;6972;51.518;6.918;2023-06-10T13:28:38;5.65;;;4.15;;
13801;SDS011;6972;51.518;6.918;2023-06-10T13:31:04;5.13;;;3.65;;
13801;SDS011;6972;51.518;6.918;2023-06-10T13:33:31;5.38;;;3.75;;
13801;SDS011;6972;51.518;6.918;2023-06-10T13:35:57;4.45;;;3.72;;
13801;SDS011;6972;51.518;6.918;2023-06-10T13:38:23;5.10;;;3.95;;
13801;SDS011;6972;51.518;6.918;2023-06-10T13:40:49;5.40;;;3.60;;
13801;SDS011;6972;51.518;6.918;2023-06-10T13:43:16;5.57;;;4.13;;
13801;SDS011;6972;51.518;6.918;2023-06-10T13:45:42;5.82;;;3.90;;
13801;SDS011;6972;51.518;6.918;2023-06-10T13:48:09;5.72;;;3.60;;
13801;SDS011;6972;51.518;6.918;2023-06-10T13:50:35;4.65;;;3.88;;
13801;SDS011;6972;51.518;6.918;2023-06-10T13:53:01;5.40;;;3.83;;
13801;SDS011;6972;51.518;6.918;2023-06-10T13:55:27;9.27;;;4.38;;
13801;SDS011;6972;51.518;6.918;2023-06-10T13:57:53;5.43;;;3.75;;
13801;SDS011;6972;51.518;6.918;2023-06-10T14:00:19;6.25;;;3.85;;
13801;SDS011;6972;51.518;6.918;2023-06-10T14:02:46;6.30;;;3.67;;
13801;SDS011;6972;51.518;6.918;2023-06-10T14:05:12;6.63;;;3.83;;
13801;SDS011;6972;51.518;6.918;2023-06-10T14:07:38;6.13;;;3.70;;
13801;SDS011;6972;51.518;6.918;2023-06-10T14:10:08;5.07;;;3.92;;
13801;SDS011;6972;51.518;6.918;2023-06-10T14:12:34;6.97;;;3.90;;
13801;SDS011;6972;51.518;6.918;2023-06-10T14:15:01;9.15;;;3.95;;
13801;SDS011;6972;51.518;6.918;2023-06-10T14:17:27;6.82;;;3.83;;
13801;SDS011;6972;51.518;6.918;2023-06-10T14:19:53;7.90;;;3.53;;
13801;SDS011;6972;51.518;6.918;2023-06-10T14:22:19;4.53;;;3.70;;
13801;SDS011;6972;51.518;6.918;2023-06-10T14:24:45;4.18;;;3.42;;
13801;SDS011;6972;51.518;6.918;2023-06-10T14:27:12;5.68;;;4.05;;
13801;SDS011;6972;51.518;6.918;2023-06-10T14:29:38;6.43;;;3.50;;
13801;SDS011;6972;51.518;6.918;2023-06-10T14:32:05;6.28;;;3.70;;
13801;SDS011;6972;51.518;6.918;2023-06-10T14:34:31;5.65;;;3.75;;
13801;SDS011;6972;51.518;6.918;2023-06-10T14:36:59;9.25;;;4.15;;
13801;SDS011;6972;51.518;6.918;2023-06-10T14:39:25;5.43;;;4.18;;
13801;SDS011;6972;51.518;6.918;2023-06-10T14:41:52;5.68;;;3.78;;
13801;SDS011;6972;51.518;6.918;2023-06-10T14:44:18;9.30;;;3.85;;
13801;SDS011;6972;51.518;6.918;2023-06-10T14:46:44;7.40;;;3.90;;
13801;SDS011;6972;51.518;6.918;2023-06-10T14:49:10;11.38;;;3.75;;
13801;SDS011;6972;51.518;6.918;2023-06-10T14:51:36;4.85;;;3.75;;
13801;SDS011;6972;51.518;6.918;2023-06-10T14:54:02;5.78;;;4.35;;
13801;SDS011;6972;51.518;6.918;2023-06-10T14:56:28;6.35;;;4.30;;
13801;SDS011;6972;51.518;6.918;2023-06-10T14:58:57;5.32;;;4.13;;
13801;SDS011;6972;51.518;6.918;2023-06-10T15:01:23;12.05;;;3.70;;
13801;SDS011;6972;51.518;6.918;2023-06-10T15:03:49;6.30;;;3.65;;
13801;SDS011;6972;51.518;6.918;2023-06-10T15:06:16;4.85;;;3.50;;
13801;SDS011;6972;51.518;6.918;2023-06-10T15:08:45;5.38;;;3.50;;
13801;SDS011;6972;51.518;6.918;2023-06-10T15:11:13;4.95;;;3.20;;
13801;SDS011;6972;51.518;6.918;2023-06-10T15:13:39;6.10;;;4.05;;
13801;SDS011;6972;51.518;6.918;2023-06-10T15:16:05;7.07;;;3.70;;
13801;SDS011;6972;51.518;6.918;2023-06-10T15:18:31;4.05;;;3.50;;
13801;SDS011;6972;51.518;6.918;2023-06-10T15:20:58;7.68;;;3.55;;